createdAt,value
2022-12-06T00:01:44.288Z,5.68
2022-12-06T00:04:15.559Z,5.75
2022-12-06T00:06:48.747Z,5.07
2022-12-06T00:09:30.003Z,5.63
2022-12-06T00:11:58.322Z,5.78
2022-12-06T00:14:27.073Z,5.40
2022-12-06T00:16:56.974Z,5.55
2022-12-06T00:19:24.705Z,5.55
2022-12-06T00:21:51.744Z,4.63
2022-12-06T00:24:23.754Z,5.15
2022-12-06T00:26:51.074Z,4.45
2022-12-06T00:29:23.061Z,5.03
2022-12-06T00:31:51.586Z,5.13
2022-12-06T00:34:18.632Z,4.35
2022-12-06T00:36:47.327Z,5.03
2022-12-06T00:39:18.390Z,4.85
2022-12-06T00:41:46.279Z,5.45
2022-12-06T00:44:13.405Z,6.70
2022-12-06T00:46:40.459Z,7.53
2022-12-06T00:49:09.665Z,7.22
2022-12-06T00:51:38.526Z,8.13
2022-12-06T00:54:07.862Z,7.28
2022-12-06T00:56:37.715Z,6.85
2022-12-06T00:59:06.813Z,7.18
2022-12-06T01:01:36.198Z,6.85
2022-12-06T01:04:07.195Z,8.13
2022-12-06T01:06:37.568Z,6.82
2022-12-06T01:09:09.463Z,6.60
2022-12-06T01:11:36.853Z,7.70
2022-12-06T01:14:03.897Z,7.20
2022-12-06T01:16:32.546Z,7.45
2022-12-06T01:19:05.428Z,7.43
2022-12-06T01:21:32.282Z,7.45
2022-12-06T01:23:59.392Z,6.90
2022-12-06T01:26:33.902Z,7.05
2022-12-06T01:29:02.346Z,8.10
2022-12-06T01:31:37.272Z,6.80
2022-12-06T01:34:09.882Z,7.50
2022-12-06T01:36:36.560Z,6.68
2022-12-06T01:39:06.922Z,6.53
2022-12-06T01:41:34.507Z,7.47
2022-12-06T01:44:01.229Z,6.30
2022-12-06T01:46:45.386Z,6.13
2022-12-06T01:49:11.956Z,5.85
2022-12-06T01:51:51.475Z,5.10
2022-12-06T01:54:23.331Z,5.80
2022-12-06T01:56:55.780Z,6.00
2022-12-06T01:59:25.775Z,5.25
2022-12-06T02:01:54.203Z,5.13
2022-12-06T02:04:23.183Z,5.38
2022-12-06T02:06:54.537Z,5.47
2022-12-06T02:09:24.163Z,5.75
2022-12-06T02:11:50.731Z,6.03
2022-12-06T02:14:32.466Z,5.10
2022-12-06T02:17:56.459Z,4.93
2022-12-06T02:20:49.954Z,5.30
2022-12-06T02:24:02.034Z,5.63
2022-12-06T02:26:48.966Z,6.05
2022-12-06T02:29:59.856Z,6.53
2022-12-06T02:32:55.290Z,6.75
2022-12-06T02:35:38.890Z,6.97
2022-12-06T02:38:19.089Z,6.60
2022-12-06T02:40:59.194Z,6.25
2022-12-06T02:43:40.268Z,6.13
2022-12-06T02:46:11.156Z,6.00
2022-12-06T02:48:41.695Z,6.15
2022-12-06T02:51:17.080Z,5.88
2022-12-06T02:53:53.062Z,5.78
2022-12-06T02:56:20.570Z,5.47
2022-12-06T02:58:47.746Z,5.93
2022-12-06T03:01:20.416Z,5.03
2022-12-06T03:03:56.093Z,5.93
2022-12-06T03:06:46.594Z,5.32
2022-12-06T03:09:50.748Z,6.53
2022-12-06T03:12:39.587Z,5.70
2022-12-06T03:15:26.701Z,5.68
2022-12-06T03:18:22.258Z,5.43
2022-12-06T03:21:00.821Z,4.60
2022-12-06T03:23:40.970Z,5.72
2022-12-06T03:26:16.788Z,6.40
2022-12-06T03:28:50.486Z,5.20
2022-12-06T03:31:17.572Z,5.35
2022-12-06T03:34:13.865Z,4.53
2022-12-06T03:36:46.780Z,4.57
2022-12-06T03:39:28.402Z,4.32
2022-12-06T03:41:59.893Z,4.28
2022-12-06T03:44:27.331Z,4.25
2022-12-06T03:47:16.050Z,5.18
2022-12-06T03:49:58.891Z,4.78
2022-12-06T03:52:29.515Z,4.43
2022-12-06T03:54:56.450Z,5.28
2022-12-06T03:57:23.550Z,5.75
2022-12-06T03:59:52.863Z,5.47
2022-12-06T04:02:19.591Z,5.43
2022-12-06T04:04:46.735Z,4.72
2022-12-06T04:07:13.627Z,5.35
2022-12-06T04:10:03.375Z,5.63
2022-12-06T04:12:54.869Z,5.18
2022-12-06T04:15:30.714Z,4.55
2022-12-06T04:18:10.813Z,5.25
2022-12-06T04:21:16.284Z,4.68
2022-12-06T04:23:51.396Z,4.78
2022-12-06T04:26:22.672Z,4.13
2022-12-06T04:29:11.245Z,4.35
2022-12-06T04:31:59.147Z,3.75
2022-12-06T04:34:44.991Z,3.80
2022-12-06T04:37:30.718Z,4.50
2022-12-06T04:39:57.555Z,3.67
2022-12-06T04:42:42.797Z,5.00
2022-12-06T04:45:10.201Z,4.88
2022-12-06T04:47:36.972Z,4.90
2022-12-06T04:50:04.128Z,5.68
2022-12-06T04:52:35.502Z,5.82
2022-12-06T04:55:04.657Z,6.47
2022-12-06T04:57:31.524Z,5.68
2022-12-06T04:59:58.536Z,6.07
2022-12-06T05:02:25.535Z,6.40
2022-12-06T05:04:52.244Z,6.43
2022-12-06T05:07:19.041Z,6.55
2022-12-06T05:09:48.948Z,5.80
2022-12-06T05:12:15.711Z,4.65
2022-12-06T05:14:42.396Z,4.65
2022-12-06T05:17:09.187Z,3.90
2022-12-06T05:19:35.824Z,4.40
2022-12-06T05:22:02.586Z,3.80
2022-12-06T05:24:30.548Z,3.97
2022-12-06T05:26:57.201Z,4.30
2022-12-06T05:29:24.030Z,3.50
2022-12-06T05:31:50.861Z,3.28
2022-12-06T05:34:17.679Z,3.15
2022-12-06T05:36:52.549Z,3.63
2022-12-06T05:39:19.170Z,2.95
2022-12-06T05:41:46.126Z,3.10
2022-12-06T05:44:12.716Z,3.40
2022-12-06T05:46:39.412Z,3.63
2022-12-06T05:49:06.066Z,3.92
2022-12-06T05:51:33.308Z,4.15
2022-12-06T06:42:29.660Z,6.60
2022-12-06T06:44:56.375Z,7.75
2022-12-06T08:09:13.754Z,12.35
2022-12-06T09:24:56.211Z,10.20
2022-12-06T09:27:22.919Z,10.00
2022-12-06T09:29:53.006Z,8.15
2022-12-06T09:32:19.689Z,9.18
2022-12-06T09:34:46.615Z,8.55
2022-12-06T09:37:14.356Z,8.35
2022-12-06T09:39:50.828Z,8.60
2022-12-06T09:42:59.667Z,8.30
2022-12-06T09:45:57.934Z,7.97
2022-12-06T09:48:49.625Z,7.55
2022-12-06T09:52:24.824Z,8.38
2022-12-06T09:55:32.623Z,7.82
2022-12-06T09:58:17.777Z,8.50
2022-12-06T11:10:35.717Z,7.00
2022-12-06T11:58:37.289Z,10.07
2022-12-06T12:01:14.425Z,9.50
2022-12-06T12:03:47.400Z,11.30
2022-12-06T12:06:29.164Z,14.15
2022-12-06T12:09:02.958Z,13.07
2022-12-06T12:11:39.736Z,13.63
2022-12-06T12:14:26.858Z,12.40
2022-12-06T12:17:02.053Z,12.90
2022-12-06T12:19:52.105Z,11.27
2022-12-06T12:22:30.643Z,11.98
2022-12-06T12:28:01.377Z,11.57
2022-12-06T12:30:42.334Z,12.68
2022-12-06T12:33:19.786Z,12.80
2022-12-06T12:36:08.485Z,11.82
2022-12-06T12:38:48.956Z,12.02
2022-12-06T12:41:42.198Z,11.30
2022-12-06T12:44:39.263Z,11.55
2022-12-06T12:47:20.777Z,11.80
2022-12-06T12:50:22.304Z,12.00
2022-12-06T12:52:49.665Z,12.35
2022-12-06T12:55:30.372Z,15.07
2022-12-06T12:58:00.920Z,15.02
2022-12-06T13:00:38.518Z,16.17
2022-12-06T13:03:49.520Z,14.60
2022-12-06T13:06:07.197Z,14.40
2022-12-06T13:08:38.892Z,12.63
2022-12-06T13:11:08.434Z,14.80
2022-12-06T13:13:49.782Z,13.70
2022-12-06T13:16:29.275Z,13.95
2022-12-06T13:18:59.342Z,14.30
2022-12-06T13:21:41.120Z,14.55
2022-12-06T13:24:10.733Z,12.55
2022-12-06T13:26:47.600Z,14.68
2022-12-06T13:29:34.768Z,13.75
2022-12-06T13:32:16.250Z,14.93
2022-12-06T13:35:27.454Z,12.40
2022-12-06T13:38:03.605Z,13.98
2022-12-06T14:14:25.898Z,8.25
2022-12-06T14:17:02.271Z,7.82
2022-12-06T14:19:38.932Z,8.98
2022-12-06T14:22:33.801Z,9.68
2022-12-06T14:25:06.826Z,9.13
2022-12-06T14:27:47.885Z,9.43
2022-12-06T14:30:26.260Z,9.30
2022-12-06T14:32:59.473Z,8.38
2022-12-06T14:35:35.972Z,10.32
2022-12-06T14:38:23.041Z,10.63
2022-12-06T14:41:10.369Z,11.20
2022-12-06T14:43:38.910Z,10.50
2022-12-06T14:46:14.676Z,10.25
2022-12-06T14:49:02.331Z,9.00
2022-12-06T14:51:42.473Z,8.77
2022-12-06T14:54:36.457Z,9.02
2022-12-06T14:57:04.384Z,8.18
2022-12-06T15:00:11.385Z,9.30
2022-12-06T15:02:28.160Z,9.50
2022-12-06T15:04:55.697Z,13.73
2022-12-06T15:07:42.771Z,15.30
2022-12-06T15:10:35.160Z,10.40
2022-12-06T15:13:16.579Z,9.40
2022-12-06T15:16:01.152Z,7.80
2022-12-06T15:21:18.035Z,5.65
2022-12-06T15:23:54.586Z,6.75
2022-12-06T15:26:24.560Z,5.88
2022-12-06T15:28:52.292Z,5.20
2022-12-06T15:31:28.116Z,6.30
2022-12-06T15:33:56.038Z,7.18
2022-12-06T15:36:33.118Z,5.95
2022-12-06T15:38:59.934Z,6.50
2022-12-06T15:41:29.198Z,5.70
2022-12-06T15:43:57.570Z,5.93
2022-12-06T15:46:28.830Z,5.28
2022-12-06T15:48:57.416Z,6.22
2022-12-06T15:51:27.489Z,6.45
2022-12-06T15:53:57.632Z,5.80
2022-12-06T15:56:30.002Z,6.25
2022-12-06T15:58:56.780Z,5.93
2022-12-06T16:01:37.133Z,6.53
2022-12-06T16:04:12.682Z,5.63
2022-12-06T16:06:39.283Z,6.20
2022-12-06T16:09:06.125Z,5.80
2022-12-06T16:11:32.769Z,6.30
2022-12-06T16:13:59.524Z,6.72
2022-12-06T16:16:26.331Z,6.30
2022-12-06T16:18:53.837Z,6.38
2022-12-06T16:21:25.146Z,6.60
2022-12-06T16:24:16.455Z,5.93
2022-12-06T16:26:44.972Z,5.63
2022-12-06T16:29:24.757Z,6.72
2022-12-06T16:31:55.499Z,5.93
2022-12-06T16:34:22.486Z,5.95
2022-12-06T16:37:06.627Z,6.88
2022-12-06T16:39:35.455Z,6.03
2022-12-06T16:42:05.150Z,5.80
2022-12-06T16:44:33.237Z,5.82
2022-12-06T16:47:00.031Z,5.22
2022-12-06T16:49:48.412Z,6.40
2022-12-06T16:52:16.529Z,5.63
2022-12-06T16:54:43.662Z,5.78
2022-12-06T16:57:14.973Z,6.25
2022-12-06T16:59:43.049Z,6.03
2022-12-06T17:02:40.656Z,6.05
2022-12-06T17:05:08.296Z,6.32
2022-12-06T17:07:36.811Z,7.00
2022-12-06T17:10:04.792Z,5.97
2022-12-06T17:12:31.495Z,6.13
2022-12-06T17:15:00.412Z,5.32
2022-12-06T17:17:29.266Z,6.53
2022-12-06T17:19:56.451Z,6.55
2022-12-06T17:22:23.585Z,5.75
2022-12-06T17:24:50.386Z,6.63
2022-12-06T17:27:17.298Z,7.18
2022-12-06T17:29:45.341Z,7.88
2022-12-06T17:32:13.689Z,6.88
2022-12-06T17:34:40.462Z,6.88
2022-12-06T17:37:07.199Z,6.65
2022-12-06T17:39:34.262Z,7.35
2022-12-06T17:42:19.955Z,6.53
2022-12-06T17:44:52.904Z,6.68
2022-12-06T17:47:20.014Z,6.85
2022-12-06T17:49:49.842Z,6.43
2022-12-06T17:52:16.913Z,6.55
2022-12-06T17:54:44.268Z,6.57
2022-12-06T17:57:18.353Z,6.95
2022-12-06T17:59:48.457Z,6.57
2022-12-06T18:02:26.776Z,6.88
2022-12-06T18:04:55.278Z,6.82
2022-12-06T18:07:22.308Z,6.93
2022-12-06T18:18:12.293Z,7.65
2022-12-06T21:54:38.212Z,10.20
2022-12-06T21:59:49.179Z,11.40
2022-12-06T22:02:15.903Z,10.55
2022-12-06T22:04:46.334Z,10.93
2022-12-06T22:07:12.974Z,11.02
2022-12-06T22:09:58.084Z,11.40
2022-12-06T22:12:25.846Z,10.27
2022-12-06T22:14:52.758Z,11.57
2022-12-06T22:17:25.385Z,12.02
2022-12-06T22:19:52.125Z,11.77
2022-12-06T22:22:19.663Z,10.73
2022-12-06T22:24:46.780Z,11.65
2022-12-06T22:27:13.468Z,11.20
2022-12-06T22:29:40.184Z,11.70
2022-12-06T22:32:06.803Z,11.30
2022-12-06T22:34:33.875Z,10.95
2022-12-06T22:37:00.706Z,11.52
2022-12-06T22:39:29.996Z,11.68
2022-12-06T22:41:56.650Z,11.27
2022-12-06T22:44:23.804Z,11.98
2022-12-06T22:46:50.602Z,11.40
2022-12-06T22:49:20.492Z,11.38
2022-12-06T22:51:50.918Z,10.45
2022-12-06T22:54:32.921Z,11.20
2022-12-06T22:57:01.636Z,11.55
2022-12-06T22:59:28.430Z,12.50
2022-12-06T23:01:55.130Z,11.90
2022-12-06T23:04:21.909Z,12.35
2022-12-06T23:06:48.815Z,12.50
2022-12-06T23:09:17.089Z,12.18
2022-12-06T23:11:44.091Z,11.32
2022-12-06T23:14:12.169Z,12.10
2022-12-06T23:16:38.936Z,11.95
2022-12-06T23:19:05.821Z,13.13
2022-12-06T23:21:36.498Z,13.45
2022-12-06T23:24:10.294Z,13.63
2022-12-06T23:26:53.145Z,14.00
2022-12-06T23:29:21.358Z,14.85
2022-12-06T23:31:48.870Z,13.18
2022-12-06T23:34:26.450Z,14.75
2022-12-06T23:36:53.769Z,15.25
2022-12-06T23:39:20.501Z,16.02
2022-12-06T23:41:47.511Z,14.15
2022-12-06T23:44:14.589Z,15.15
2022-12-06T23:46:44.166Z,15.57
2022-12-06T23:49:20.308Z,14.57
2022-12-06T23:51:48.927Z,15.07
2022-12-06T23:54:18.376Z,17.10
2022-12-06T23:56:46.063Z,16.63
2022-12-06T23:59:16.534Z,15.50
